createdAt,value
2023-04-04T00:03:35.017Z,7.00
2023-04-04T00:08:40.779Z,4.82
2023-04-04T00:13:45.689Z,9.90
2023-04-04T00:18:50.638Z,6.80
2023-04-04T00:23:57.211Z,5.05
2023-04-04T00:29:01.441Z,10.55
2023-04-04T00:34:07.138Z,4.90
2023-04-04T00:39:12.777Z,7.63
2023-04-04T00:44:17.111Z,18.10
2023-04-04T00:49:21.256Z,12.80
2023-04-04T00:54:27.175Z,10.77
2023-04-04T00:59:32.994Z,10.82
2023-04-04T01:04:37.903Z,8.75
2023-04-04T01:09:43.708Z,6.80
2023-04-04T01:14:48.273Z,6.28
2023-04-04T01:20:02.534Z,11.63
2023-04-04T01:25:17.848Z,18.20
2023-04-04T01:30:30.090Z,7.88
2023-04-04T01:35:43.695Z,10.07
2023-04-04T01:40:52.798Z,7.97
2023-04-04T01:46:01.654Z,15.18
2023-04-04T01:51:07.528Z,8.67
2023-04-04T01:56:11.961Z,6.90
2023-04-04T02:01:18.568Z,7.65
2023-04-04T02:06:22.914Z,11.90
2023-04-04T02:11:27.832Z,8.00
2023-04-04T02:16:34.042Z,11.45
2023-04-04T02:21:38.339Z,9.18
2023-04-04T02:26:43.031Z,8.88
2023-04-04T02:31:49.964Z,9.82
2023-04-04T02:36:54.304Z,5.80
2023-04-04T02:42:00.366Z,14.93
2023-04-04T02:47:07.610Z,6.07
2023-04-04T02:52:11.854Z,10.43
2023-04-04T02:57:20.473Z,13.20
2023-04-04T03:02:27.526Z,14.73
2023-04-04T03:07:32.472Z,7.32
2023-04-04T03:12:36.994Z,8.13
2023-04-04T03:17:43.065Z,12.35
2023-04-04T03:22:47.502Z,9.52
2023-04-04T03:27:51.841Z,6.65
2023-04-04T03:33:08.716Z,14.50
2023-04-04T03:38:15.451Z,11.75
2023-04-04T03:43:19.971Z,7.90
2023-04-04T03:48:26.021Z,7.30
2023-04-04T03:53:31.268Z,10.10
2023-04-04T03:58:37.647Z,8.35
2023-04-04T04:03:43.269Z,5.95
2023-04-04T04:08:48.807Z,7.10
2023-04-04T04:13:53.775Z,9.45
2023-04-04T04:18:59.902Z,8.23
2023-04-04T04:24:13.646Z,8.25
2023-04-04T04:29:18.190Z,8.93
2023-04-04T04:34:24.629Z,7.78
2023-04-04T04:39:29.294Z,10.45
2023-04-04T04:44:45.435Z,8.77
2023-04-04T04:49:51.652Z,9.85
2023-04-04T04:55:02.712Z,9.30
2023-04-04T05:00:08.657Z,9.20
2023-04-04T05:05:15.123Z,8.20
2023-04-04T05:10:19.900Z,5.55
2023-04-04T05:15:25.998Z,4.68
2023-04-04T05:20:32.238Z,40.17
2023-04-04T05:25:38.990Z,15.73
2023-04-04T05:30:43.522Z,8.45
2023-04-04T05:36:03.220Z,9.10
2023-04-04T05:41:10.343Z,10.98
2023-04-04T05:46:15.046Z,12.85
2023-04-04T05:56:42.844Z,11.93
2023-04-04T06:07:09.149Z,5.72
2023-04-04T06:12:13.335Z,8.20
2023-04-04T06:17:18.984Z,7.95
2023-04-04T06:22:24.564Z,7.68
2023-04-04T06:27:31.484Z,6.63
2023-04-04T06:32:37.937Z,5.40
2023-04-04T06:37:45.132Z,7.10
2023-04-04T06:42:55.390Z,9.18
2023-04-04T06:48:01.901Z,3.58
2023-04-04T06:53:08.185Z,5.15
2023-04-04T06:58:12.500Z,3.47
2023-04-04T07:03:17.411Z,2.97
2023-04-04T07:08:23.260Z,3.35
2023-04-04T07:13:27.465Z,3.08
2023-04-04T07:18:31.684Z,5.32
2023-04-04T07:23:37.567Z,22.95
2023-04-04T07:28:41.871Z,10.88
2023-04-04T07:33:46.206Z,9.85
2023-04-04T07:38:51.772Z,6.95
2023-04-04T07:43:56.215Z,13.93
2023-04-04T07:49:01.351Z,23.38
2023-04-04T07:54:07.675Z,11.93
2023-04-04T07:59:12.294Z,3.70
2023-04-04T08:04:16.880Z,22.58
2023-04-04T08:09:22.794Z,9.02
2023-04-04T08:14:27.804Z,5.13
2023-04-04T08:19:32.121Z,6.63
2023-04-04T08:24:38.170Z,4.00
2023-04-04T08:29:42.837Z,8.07
2023-04-04T08:34:47.550Z,12.25
2023-04-04T08:39:53.342Z,6.18
2023-04-04T08:45:00.874Z,2.75
2023-04-04T08:50:07.778Z,4.55
2023-04-04T08:55:16.284Z,4.40
2023-04-04T09:00:21.710Z,4.82
2023-04-04T09:05:27.443Z,5.13
2023-04-04T09:10:33.454Z,7.63
2023-04-04T09:15:39.812Z,5.93
2023-04-04T09:20:45.475Z,3.28
2023-04-04T09:31:02.574Z,2.45
2023-04-04T09:36:10.485Z,2.92
2023-04-04T09:41:17.821Z,2.47
2023-04-04T09:46:22.384Z,3.38
2023-04-04T09:51:27.638Z,2.38
2023-04-04T09:56:35.062Z,1.85
2023-04-04T10:01:40.160Z,2.08
2023-04-04T10:06:46.192Z,3.08
2023-04-04T10:11:52.230Z,3.42
2023-04-04T10:16:58.464Z,3.20
2023-04-04T10:22:03.104Z,3.95
2023-04-04T10:27:08.728Z,1.95
2023-04-04T10:32:21.383Z,3.45
2023-04-04T10:37:29.143Z,2.80
2023-04-04T10:42:41.083Z,4.70
2023-04-04T10:47:46.795Z,3.10
2023-04-04T10:52:52.035Z,2.00
2023-04-04T10:57:58.392Z,2.03
2023-04-04T11:03:03.929Z,2.33
2023-04-04T11:08:10.974Z,3.17
2023-04-04T11:13:18.648Z,2.20
2023-04-04T11:18:33.364Z,2.92
2023-04-04T11:24:18.588Z,2.28
2023-04-04T11:29:51.691Z,2.40
2023-04-04T11:34:58.930Z,3.05
2023-04-04T11:40:13.404Z,3.38
2023-04-04T11:45:22.562Z,4.53
2023-04-04T11:50:28.446Z,3.45
2023-04-04T11:55:33.461Z,2.90
2023-04-04T12:00:40.228Z,3.78
2023-04-04T12:05:45.720Z,13.05
2023-04-04T12:10:49.986Z,17.42
2023-04-04T12:15:57.861Z,7.82
2023-04-04T12:21:02.326Z,11.50
2023-04-04T12:26:07.403Z,5.10
2023-04-04T12:31:14.672Z,5.60
2023-04-04T12:36:19.697Z,3.65
2023-04-04T12:41:23.994Z,3.38
2023-04-04T12:46:30.026Z,4.55
2023-04-04T12:51:35.284Z,5.10
2023-04-04T12:56:40.503Z,13.10
2023-04-04T13:01:48.582Z,6.38
2023-04-04T13:06:53.041Z,2.40
2023-04-04T13:11:59.573Z,5.80
2023-04-04T13:17:08.588Z,3.10
2023-04-04T13:22:13.833Z,3.22
2023-04-04T13:27:18.957Z,16.40
2023-04-04T13:32:25.670Z,7.95
2023-04-04T13:37:30.888Z,6.15
2023-04-04T13:42:36.388Z,5.07
2023-04-04T13:47:43.818Z,8.60
2023-04-04T13:52:48.716Z,5.65
2023-04-04T13:57:53.533Z,4.57
2023-04-04T14:03:00.814Z,4.13
2023-04-04T14:08:06.598Z,3.20
2023-04-04T14:13:12.577Z,2.78
2023-04-04T14:18:19.646Z,4.22
2023-04-04T14:23:24.813Z,17.98
2023-04-04T14:28:29.457Z,5.57
2023-04-04T14:33:36.415Z,3.58
2023-04-04T14:38:41.733Z,3.35
2023-04-04T14:43:46.203Z,3.50
2023-04-04T14:48:53.540Z,6.47
2023-04-04T14:53:58.601Z,4.43
2023-04-04T14:59:06.202Z,7.72
2023-04-04T15:04:12.211Z,15.23
2023-04-04T15:09:17.319Z,13.57
2023-04-04T15:14:22.177Z,12.85
2023-04-04T15:19:29.130Z,7.40
2023-04-04T15:24:34.050Z,29.27
2023-04-04T15:29:39.619Z,11.82
2023-04-04T15:34:45.936Z,17.88
2023-04-04T15:39:53.486Z,27.20
2023-04-04T15:44:59.926Z,14.25
2023-04-04T15:50:07.201Z,17.23
2023-04-04T15:55:13.769Z,12.18
2023-04-04T16:00:20.035Z,12.55
2023-04-04T16:05:27.483Z,21.20
2023-04-04T16:10:33.176Z,19.52
2023-04-04T16:15:39.135Z,12.18
2023-04-04T16:20:45.866Z,10.25
2023-04-04T16:25:51.377Z,21.45
2023-04-04T16:30:56.472Z,10.95
2023-04-04T16:36:02.565Z,33.35
2023-04-04T16:41:08.115Z,22.92
2023-04-04T16:46:13.680Z,21.60
2023-04-04T16:51:21.824Z,33.15
2023-04-04T16:56:26.605Z,71.90
2023-04-04T17:01:32.685Z,36.80
2023-04-04T17:06:39.427Z,10.23
2023-04-04T17:11:45.313Z,12.40
2023-04-04T17:16:50.568Z,9.38
2023-04-04T17:21:57.209Z,19.83
2023-04-04T17:27:02.837Z,6.85
2023-04-04T17:32:08.465Z,7.90
2023-04-04T17:37:15.872Z,6.78
2023-04-04T17:42:21.839Z,5.53
2023-04-04T17:47:26.694Z,4.55
2023-04-04T17:52:33.625Z,10.80
2023-04-04T17:57:39.361Z,8.15
2023-04-04T18:02:44.721Z,11.18
2023-04-04T18:07:51.383Z,14.77
2023-04-04T18:12:57.083Z,13.63
2023-04-04T18:18:02.325Z,9.00
2023-04-04T18:23:09.722Z,6.60
2023-04-04T18:28:14.415Z,7.60
2023-04-04T18:33:19.883Z,8.35
2023-04-04T18:38:26.137Z,7.30
2023-04-04T18:43:31.297Z,27.15
2023-04-04T18:48:35.932Z,14.30
2023-04-04T18:53:42.186Z,9.15
2023-04-04T18:58:47.027Z,15.85
2023-04-04T19:03:53.981Z,13.40
2023-04-04T19:09:04.283Z,9.45
2023-04-04T19:14:09.315Z,9.73
2023-04-04T19:19:13.997Z,8.77
2023-04-04T19:24:19.859Z,17.95
2023-04-04T19:29:24.572Z,15.52
2023-04-04T19:34:30.977Z,27.52
2023-04-04T19:39:36.942Z,15.05
2023-04-04T19:44:42.652Z,37.45
2023-04-04T19:49:46.987Z,33.05
2023-04-04T19:54:53.265Z,25.48
2023-04-04T20:00:01.943Z,20.05
2023-04-04T20:05:46.946Z,16.15
2023-04-04T20:10:57.219Z,18.20
2023-04-04T20:16:06.976Z,25.23
2023-04-04T20:21:13.899Z,34.80
2023-04-04T20:26:47.401Z,27.45
2023-04-04T20:31:54.559Z,25.70
2023-04-04T20:36:59.229Z,31.45
2023-04-04T20:42:18.239Z,26.60
2023-04-04T20:47:42.943Z,34.17
2023-04-04T20:52:50.426Z,63.10
2023-04-04T20:57:58.899Z,46.22
2023-04-04T21:03:10.820Z,39.27
2023-04-04T21:08:39.159Z,43.17
2023-04-04T21:13:46.108Z,34.80
2023-04-04T21:18:50.745Z,37.83
2023-04-04T21:23:56.078Z,36.35
2023-04-04T21:29:04.111Z,41.38
2023-04-04T21:34:13.872Z,44.40
2023-04-04T21:39:23.807Z,46.67
2023-04-04T21:44:29.806Z,45.92
2023-04-04T21:49:34.051Z,51.28
2023-04-04T21:54:38.331Z,85.57
2023-04-04T21:59:44.129Z,52.75
2023-04-04T22:04:48.464Z,79.55
2023-04-04T22:09:53.050Z,31.95
2023-04-04T22:14:59.130Z,35.72
2023-04-04T22:20:09.568Z,30.92
2023-04-04T22:25:14.234Z,34.80
2023-04-04T22:30:19.881Z,30.83
2023-04-04T22:35:24.224Z,30.10
2023-04-04T22:40:29.084Z,26.27
2023-04-04T22:45:35.001Z,27.38
2023-04-04T22:50:39.438Z,27.80
2023-04-04T22:55:44.040Z,25.55
2023-04-04T23:00:50.603Z,26.10
2023-04-04T23:05:55.582Z,24.90
2023-04-04T23:10:59.681Z,29.65
2023-04-04T23:16:06.003Z,27.77
2023-04-04T23:21:10.314Z,32.13
2023-04-04T23:26:15.037Z,29.50
2023-04-04T23:31:20.750Z,31.10
2023-04-04T23:36:24.948Z,31.63
2023-04-04T23:41:29.366Z,37.53
2023-04-04T23:46:35.551Z,34.65
2023-04-04T23:51:40.167Z,35.15
2023-04-04T23:56:44.417Z,32.35
